Time;durP1;ratioP1;P1;durP2;ratioP2;P2;SDS_P1;SDS_P2;PMS_P1;PMS_P2;Temp;Humidity;BMP_temperature;BMP_pressure;BME280_temperature;BME280_humidity;BME280_pressure;Samples;Min_cycle;Max_cycle;Signal;HPM_P1;HPM_P2
2023/04/03 07:05:44;;;;;;;12.32;6.35;;;;;;;;;;6253259;22;20027;-81
2023/04/03 07:08:16;;;;;;;9.57;6.15;;;;;;;;;;6299608;22;20087;-81
2023/04/03 07:11:05;;;;;;;8.75;5.80;;;;;;;;;;6289624;22;20468;-81
2023/04/03 07:13:34;;;;;;;8.07;6.15;;;;;;;;;;6292810;22;19999;-81
2023/04/03 07:16:08;;;;;;;9.20;5.78;;;;;;;;;;6295965;22;19988;-83
2023/04/03 07:18:37;;;;;;;8.63;5.68;;;;;;;;;;6293262;22;20035;-81
2023/04/03 07:21:12;;;;;;;9.13;5.13;;;;;;;;;;6299501;22;20038;-84
2023/04/03 07:23:59;;;;;;;8.52;5.55;;;;;;;;;;6297950;22;20257;-83
2023/04/03 07:26:28;;;;;;;10.35;5.03;;;;;;;;;;6290629;22;20023;-80
2023/04/03 07:28:57;;;;;;;8.65;6.15;;;;;;;;;;6289978;22;20402;-78
2023/04/03 07:31:33;;;;;;;8.43;4.53;;;;;;;;;;6295989;22;20434;-80
2023/04/03 07:34:02;;;;;;;6.85;4.47;;;;;;;;;;6285115;22;19996;-82
2023/04/03 07:36:35;;;;;;;5.03;3.90;;;;;;;;;;6302308;22;19995;-83
2023/04/03 07:41:38;;;;;;;8.13;4.63;;;;;;;;;;6247378;22;20004;-78
2023/04/03 07:46:40;;;;;;;10.90;4.68;;;;;;;;;;6290848;22;20112;-82
2023/04/03 07:49:12;;;;;;;5.40;3.90;;;;;;;;;;6297075;22;20083;-83
2023/04/03 07:51:41;;;;;;;6.85;4.05;;;;;;;;;;6295257;22;20011;-82
2023/04/03 07:54:13;;;;;;;5.20;4.32;;;;;;;;;;6296453;22;20034;-80
2023/04/03 07:56:48;;;;;;;5.00;3.80;;;;;;;;;;6297992;22;20004;-80
2023/04/03 07:59:14;;;;;;;10.55;4.38;;;;;;;;;;6287514;22;19999;-80
2023/04/03 08:01:40;;;;;;;8.60;4.20;;;;;;;;;;6287135;22;20067;-79
2023/04/03 08:04:06;;;;;;;9.00;4.15;;;;;;;;;;6291028;22;20011;-81
2023/04/03 08:06:38;;;;;;;6.88;4.28;;;;;;;;;;6291924;22;20008;-82
2023/04/03 08:09:07;;;;;;;5.55;3.88;;;;;;;;;;6297676;22;20000;-81
2023/04/03 08:11:36;;;;;;;7.35;4.32;;;;;;;;;;6295851;22;20003;-83
2023/04/03 08:14:08;;;;;;;6.32;4.65;;;;;;;;;;6300524;22;19988;-83
2023/04/03 08:27:00;;;;;;;18.33;6.28;;;;;;;;;;6233307;22;20236;-84
2023/04/03 08:32:05;;;;;;;9.70;4.53;;;;;;;;;;6270145;22;20008;-82
2023/04/03 08:34:36;;;;;;;12.43;6.50;;;;;;;;;;6273428;22;20012;-82
2023/04/03 08:45:30;;;;;;;8.98;5.82;;;;;;;;;;6206433;22;20020;-83
2023/04/03 08:48:49;;;;;;;5.65;5.05;;;;;;;;;;6270478;22;20076;-84
2023/04/03 08:54:02;;;;;;;7.32;5.18;;;;;;;;;;6313729;22;20028;-85
2023/04/03 08:56:34;;;;;;;6.55;5.05;;;;;;;;;;6302983;22;20001;-82
2023/04/03 08:59:05;;;;;;;7.03;5.22;;;;;;;;;;6324957;22;20008;-83
2023/04/03 09:01:41;;;;;;;7.50;4.68;;;;;;;;;;6295401;22;20067;-80
2023/04/03 09:04:07;;;;;;;;;;;;;;;;;;6321652;22;20055;-81
2023/04/03 09:06:36;;;;;;;13.00;5.45;;;;;;;;;;6293212;22;20241;-81
2023/04/03 09:09:09;;;;;;;10.07;4.95;;;;;;;;;;6293202;22;20019;-80
2023/04/03 09:11:53;;;;;;;11.93;4.78;;;;;;;;;;6320508;22;20082;-81
2023/04/03 09:14:25;;;;;;;7.30;4.32;;;;;;;;;;6295460;22;20377;-80
2023/04/03 09:16:54;;;;;;;9.63;4.82;;;;;;;;;;6319342;22;20070;-80
2023/04/03 09:19:35;;;;;;;12.30;4.75;;;;;;;;;;6292531;22;20063;-80
2023/04/03 09:22:20;;;;;;;9.43;4.40;;;;;;;;;;6321963;22;20336;-82
2023/04/03 09:24:47;;;;;;;9.32;3.97;;;;;;;;;;6322808;22;20002;-79
2023/04/03 09:27:17;;;;;;;5.80;5.13;;;;;;;;;;6326964;22;20501;-80
2023/04/03 09:29:48;;;;;;;3.88;2.88;;;;;;;;;;6296095;22;20007;-82
2023/04/03 09:32:28;;;;;;;3.63;3.17;;;;;;;;;;6329611;22;20044;-83
2023/04/03 09:34:56;;;;;;;6.75;3.90;;;;;;;;;;6301304;22;20048;-81
2023/04/03 09:37:57;;;;;;;6.00;3.88;;;;;;;;;;6327313;22;20004;-81
2023/04/03 09:40:26;;;;;;;3.50;3.20;;;;;;;;;;6233722;22;20412;-82
2023/04/03 09:43:14;;;;;;;4.60;3.00;;;;;;;;;;6300894;22;20015;-82
2023/04/03 09:51:01;;;;;;;3.87;2.70;;;;;;;;;;6245478;22;20031;-81
2023/04/03 09:53:38;;;;;;;7.20;3.65;;;;;;;;;;6298892;22;20016;-82
2023/04/03 09:56:06;;;;;;;6.40;2.80;;;;;;;;;;6295811;22;20372;-82
2023/04/03 09:58:49;;;;;;;7.43;3.15;;;;;;;;;;6298529;22;20018;-83
2023/04/03 10:01:25;;;;;;;5.43;2.97;;;;;;;;;;6269372;22;20015;-83
2023/04/03 10:04:31;;;;;;;5.57;3.28;;;;;;;;;;6296004;22;20008;-82
2023/04/03 10:06:59;;;;;;;4.60;2.60;;;;;;;;;;6294507;22;20028;-81
2023/04/03 10:09:29;;;;;;;4.85;3.00;;;;;;;;;;6298527;22;19983;-82
2023/04/03 10:11:59;;;;;;;8.75;3.40;;;;;;;;;;6302765;22;19995;-82
2023/04/03 10:14:30;;;;;;;7.32;4.88;;;;;;;;;;6301251;22;20048;-83
2023/04/03 10:16:59;;;;;;;5.50;3.35;;;;;;;;;;6301866;22;20019;-82
2023/04/03 10:19:38;;;;;;;4.28;3.28;;;;;;;;;;6274526;22;20000;-84
2023/04/03 10:25:08;;;;;;;3.38;2.45;;;;;;;;;;6298767;22;19996;-83
2023/04/03 10:27:53;;;;;;;4.00;2.45;;;;;;;;;;6302194;22;20039;-82
2023/04/03 10:30:39;;;;;;;4.13;2.70;;;;;;;;;;6303510;22;19991;-83
2023/04/03 10:33:24;;;;;;;4.35;2.55;;;;;;;;;;6303706;22;20028;-84
2023/04/03 10:38:41;;;;;;;4.93;2.60;;;;;;;;;;6317603;22;19995;-81
2023/04/03 10:51:42;;;;;;;4.03;2.50;;;;;;;;;;6270389;22;20044;-84
2023/04/03 10:54:28;;;;;;;4.20;2.30;;;;;;;;;;6244411;22;20024;-85
2023/04/03 10:57:12;;;;;;;5.35;2.20;;;;;;;;;;6267806;22;20042;-84
2023/04/03 10:59:53;;;;;;;4.28;2.90;;;;;;;;;;6262737;23;20000;-81
2023/04/03 11:02:55;;;;;;;7.32;2.95;;;;;;;;;;6237912;23;20234;-82
2023/04/03 11:08:34;;;;;;;4.15;2.75;;;;;;;;;;6238949;22;20078;-82
2023/04/03 11:11:06;;;;;;;4.95;2.90;;;;;;;;;;6333936;22;20033;-83
2023/04/03 11:13:54;;;;;;;5.28;2.80;;;;;;;;;;6308135;22;19987;-83
2023/04/03 11:16:31;;;;;;;4.18;2.88;;;;;;;;;;6304448;22;20018;-82
2023/04/03 11:19:03;;;;;;;4.03;3.30;;;;;;;;;;6303655;22;20076;-82
2023/04/03 11:21:39;;;;;;;5.30;2.83;;;;;;;;;;6304943;22;20019;-82
2023/04/03 11:24:26;;;;;;;4.38;3.40;;;;;;;;;;6304552;22;20011;-82
2023/04/03 11:26:56;;;;;;;4.45;2.65;;;;;;;;;;6304935;22;20130;-83
2023/04/03 11:29:29;;;;;;;6.57;2.60;;;;;;;;;;6306752;22;20011;-82
2023/04/03 11:32:01;;;;;;;3.72;3.10;;;;;;;;;;6306813;22;20012;-83
2023/04/03 11:34:31;;;;;;;4.47;2.97;;;;;;;;;;6308306;22;20038;-84
2023/04/03 11:37:01;;;;;;;2.83;2.42;;;;;;;;;;6271509;22;20011;-82
2023/04/03 11:39:38;;;;;;;4.80;2.95;;;;;;;;;;6327154;22;19996;-82
2023/04/03 11:42:18;;;;;;;4.40;3.28;;;;;;;;;;6300391;22;20003;-79
2023/04/03 11:45:04;;;;;;;4.95;3.05;;;;;;;;;;6324825;22;19995;-83
2023/04/03 11:47:47;;;;;;;4.15;2.83;;;;;;;;;;6320831;22;20015;-81
2023/04/03 11:50:32;;;;;;;7.63;2.75;;;;;;;;;;6324968;22;19996;-82
2023/04/03 11:53:00;;;;;;;4.47;2.72;;;;;;;;;;6295434;22;20014;-81
2023/04/03 11:55:32;;;;;;;7.20;2.80;;;;;;;;;;6323535;22;20023;-81
2023/04/03 11:57:58;;;;;;;6.55;3.35;;;;;;;;;;6297384;22;20426;-81
2023/04/03 12:00:43;;;;;;;4.07;2.75;;;;;;;;;;6324063;22;20008;-81
2023/04/03 12:03:28;;;;;;;5.22;3.00;;;;;;;;;;6325685;22;19995;-83
2023/04/03 12:05:57;;;;;;;11.55;3.03;;;;;;;;;;6300240;22;20018;-84
2023/04/03 12:08:24;;;;;;;5.13;3.00;;;;;;;;;;6332233;22;19988;-83
2023/04/03 12:11:08;;;;;;;5.22;3.50;;;;;;;;;;6332983;22;20017;-85
2023/04/03 12:13:39;;;;;;;4.72;3.30;;;;;;;;;;6305633;22;20074;-83
2023/04/03 12:16:19;;;;;;;6.68;3.83;;;;;;;;;;6329193;22;19999;-81
2023/04/03 12:18:58;;;;;;;8.60;3.00;;;;;;;;;;6326587;22;19999;-81
2023/04/03 12:21:24;;;;;;;3.58;2.92;;;;;;;;;;6298345;22;20014;-82
2023/04/03 12:23:56;;;;;;;6.95;3.10;;;;;;;;;;6325459;22;20187;-82
2023/04/03 12:26:25;;;;;;;6.40;2.85;;;;;;;;;;6330244;22;20008;-82
2023/04/03 12:28:53;;;;;;;9.35;4.10;;;;;;;;;;6331486;22;19999;-82
2023/04/03 12:31:19;;;;;;;5.00;2.78;;;;;;;;;;6330505;22;19995;-85
2023/04/03 12:33:48;;;;;;;6.35;3.00;;;;;;;;;;6330394;22;19987;-82
2023/04/03 12:36:22;;;;;;;4.50;2.67;;;;;;;;;;6329165;22;20015;-80
2023/04/03 12:39:03;;;;;;;4.07;2.60;;;;;;;;;;6298518;22;19999;-83
2023/04/03 12:41:43;;;;;;;3.08;2.50;;;;;;;;;;6299061;22;20033;-82
2023/04/03 12:44:12;;;;;;;4.72;2.85;;;;;;;;;;6302400;22;20086;-83
2023/04/03 12:46:40;;;;;;;3.83;3.03;;;;;;;;;;6327592;22;20003;-84
2023/04/03 12:49:15;;;;;;;6.18;3.15;;;;;;;;;;6326588;22;19999;-82
2023/04/03 12:51:42;;;;;;;3.95;2.38;;;;;;;;;;6297002;22;20007;-82
2023/04/03 12:54:18;;;;;;;6.00;3.35;;;;;;;;;;6297078;22;20034;-83
2023/04/03 12:56:44;;;;;;;;;;;;;;;;;;6324874;22;20427;-81
2023/04/03 12:59:19;;;;;;;10.05;3.45;;;;;;;;;;6295493;22;20199;-81
2023/04/03 13:01:53;;;;;;;5.47;2.90;;;;;;;;;;6296901;22;20353;-82
2023/04/03 13:04:19;;;;;;;3.50;2.50;;;;;;;;;;6325578;22;20253;-82
2023/04/03 13:06:45;;;;;;;3.85;2.90;;;;;;;;;;6321605;22;20000;-81
2023/04/03 13:09:21;;;;;;;3.65;2.50;;;;;;;;;;6324797;22;20409;-78
2023/04/03 13:11:49;;;;;;;4.97;2.88;;;;;;;;;;6322496;22;20440;-81
2023/04/03 13:14:16;;;;;;;5.38;3.53;;;;;;;;;;6294888;22;20004;-82
2023/04/03 13:16:44;;;;;;;4.55;2.50;;;;;;;;;;6302680;22;20011;-84
2023/04/03 13:19:17;;;;;;;4.70;2.72;;;;;;;;;;6300231;22;20007;-83
2023/04/03 13:21:45;;;;;;;5.50;2.60;;;;;;;;;;6327407;22;19999;-82
2023/04/03 13:24:12;;;;;;;3.17;2.33;;;;;;;;;;6333644;22;20001;-83
2023/04/03 13:26:38;;;;;;;4.32;2.90;;;;;;;;;;6302734;22;20011;-83
2023/04/03 13:29:07;;;;;;;6.03;2.75;;;;;;;;;;6301285;22;19991;-82
2023/04/03 13:31:37;;;;;;;7.05;3.38;;;;;;;;;;6328324;22;19988;-82
2023/04/03 13:34:06;;;;;;;3.75;2.83;;;;;;;;;;6298911;22;20003;-80
2023/04/03 13:36:37;;;;;;;4.32;2.92;;;;;;;;;;6296273;22;20022;-81
2023/04/03 13:39:24;;;;;;;4.97;2.70;;;;;;;;;;6300573;22;20026;-80
2023/04/03 13:41:51;;;;;;;5.78;3.17;;;;;;;;;;6299324;22;20007;-83
2023/04/03 13:44:17;;;;;;;5.30;2.35;;;;;;;;;;6325166;22;19999;-81
2023/04/03 13:46:43;;;;;;;4.68;3.33;;;;;;;;;;6326525;22;19987;-82
2023/04/03 13:49:28;;;;;;;4.95;2.88;;;;;;;;;;6300197;22;20023;-82
2023/04/03 13:51:54;;;;;;;7.68;3.33;;;;;;;;;;6330698;22;20019;-83
2023/04/03 13:54:23;;;;;;;8.18;3.97;;;;;;;;;;6296675;22;20038;-82
2023/04/03 13:56:54;;;;;;;6.18;3.90;;;;;;;;;;6296743;22;19987;-81
2023/04/03 13:59:41;;;;;;;7.15;2.85;;;;;;;;;;6324256;22;20054;-82
2023/04/03 14:02:12;;;;;;;7.00;3.13;;;;;;;;;;6302752;22;20011;-82
2023/04/03 14:04:47;;;;;;;5.70;2.80;;;;;;;;;;6304266;22;20742;-83
2023/04/03 14:07:14;;;;;;;4.25;2.58;;;;;;;;;;6341573;22;19999;-82
2023/04/03 14:09:40;;;;;;;5.72;2.67;;;;;;;;;;6342552;22;20311;-85
2023/04/03 14:12:08;;;;;;;6.63;3.33;;;;;;;;;;6345274;22;20010;-76
2023/04/03 14:14:36;;;;;;;5.88;2.75;;;;;;;;;;6316770;22;20548;-82
2023/04/03 14:17:10;;;;;;;4.38;2.92;;;;;;;;;;6343091;22;20538;-79
2023/04/03 14:19:36;;;;;;;5.45;2.95;;;;;;;;;;6316973;22;20356;-78
2023/04/03 14:22:11;;;;;;;7.78;2.75;;;;;;;;;;6320019;22;20048;-82
2023/04/03 14:24:39;;;;;;;;;;;;;;;;;;6325047;22;19999;-81
2023/04/03 14:27:06;;;;;;;10.10;4.05;;;;;;;;;;6319866;22;19910;-78
2023/04/03 14:29:32;;;;;;;5.38;2.78;;;;;;;;;;6320410;22;20030;-77
2023/04/03 14:32:00;;;;;;;5.03;2.80;;;;;;;;;;6346147;22;19991;-85
2023/04/03 14:34:26;;;;;;;3.92;2.65;;;;;;;;;;6346027;22;20014;-84
2023/04/03 14:36:52;;;;;;;5.10;2.80;;;;;;;;;;6342597;22;20018;-80
2023/04/03 14:39:18;;;;;;;5.10;2.58;;;;;;;;;;6340697;22;20002;-80
2023/04/03 14:41:45;;;;;;;4.25;2.38;;;;;;;;;;6311786;22;20824;-84
2023/04/03 14:44:12;;;;;;;3.67;2.33;;;;;;;;;;6309966;22;20011;-82
2023/04/03 14:46:40;;;;;;;5.25;2.50;;;;;;;;;;6335635;22;20006;-78
2023/04/03 14:49:21;;;;;;;4.57;2.50;;;;;;;;;;6338909;22;20002;-84
2023/04/03 14:51:47;;;;;;;5.30;2.30;;;;;;;;;;6338559;22;20377;-86
2023/04/03 14:54:14;;;;;;;3.25;2.25;;;;;;;;;;6338386;22;20052;-82
2023/04/03 14:56:41;;;;;;;4.13;2.17;;;;;;;;;;6337179;22;20032;-80
2023/04/03 14:59:10;;;;;;;4.50;2.35;;;;;;;;;;6311431;22;20006;-85
2023/04/03 15:01:36;;;;;;;6.88;2.58;;;;;;;;;;6308537;22;20010;-86
2023/04/03 15:04:02;;;;;;;4.47;2.35;;;;;;;;;;6338186;22;20007;-84
2023/04/03 15:06:36;;;;;;;4.93;3.13;;;;;;;;;;6339565;22;20010;-83
2023/04/03 15:09:03;;;;;;;4.60;2.45;;;;;;;;;;6312780;22;20029;-83
2023/04/03 15:11:29;;;;;;;5.25;2.30;;;;;;;;;;6338477;22;20017;-86
2023/04/03 15:13:55;;;;;;;5.60;3.03;;;;;;;;;;6343024;22;20005;-77
2023/04/03 15:16:21;;;;;;;4.57;2.88;;;;;;;;;;6314467;22;20122;-86
2023/04/03 15:18:48;;;;;;;5.40;2.88;;;;;;;;;;6316393;22;19991;-85
2023/04/03 15:21:15;;;;;;;4.07;2.58;;;;;;;;;;6340845;22;20061;-80
2023/04/03 15:23:42;;;;;;;5.82;3.10;;;;;;;;;;6345427;22;20017;-84
2023/04/03 15:26:09;;;;;;;3.42;2.88;;;;;;;;;;6318434;22;20013;-80
2023/04/03 15:28:39;;;;;;;6.97;3.10;;;;;;;;;;6348952;22;20032;-76
2023/04/03 15:31:06;;;;;;;4.15;2.50;;;;;;;;;;6321210;22;20032;-78
2023/04/03 15:33:35;;;;;;;4.25;2.80;;;;;;;;;;6321348;22;20021;-82
2023/04/03 15:36:02;;;;;;;4.00;2.60;;;;;;;;;;6321802;22;20011;-83
2023/04/03 15:38:28;;;;;;;4.82;2.50;;;;;;;;;;6352388;22;20025;-80
2023/04/03 15:40:55;;;;;;;3.30;2.45;;;;;;;;;;6350638;22;20469;-78
2023/04/03 15:43:21;;;;;;;4.10;2.88;;;;;;;;;;6324576;22;20550;-84
2023/04/03 15:45:48;;;;;;;3.20;2.90;;;;;;;;;;6321594;22;20035;-82
2023/04/03 15:48:14;;;;;;;4.85;2.40;;;;;;;;;;6353120;22;20082;-79
2023/04/03 15:50:41;;;;;;;4.28;2.40;;;;;;;;;;6325698;22;19999;-78
2023/04/03 15:53:07;;;;;;;4.25;2.63;;;;;;;;;;6353218;22;20013;-78
2023/04/03 15:55:35;;;;;;;5.13;2.58;;;;;;;;;;6354675;22;20006;-79
2023/04/03 15:58:02;;;;;;;7.75;2.60;;;;;;;;;;6301252;22;20014;-80
2023/04/03 16:00:29;;;;;;;5.60;2.50;;;;;;;;;;6326122;22;20015;-76
2023/04/03 16:03:01;;;;;;;5.22;2.63;;;;;;;;;;6353730;22;20007;-78
2023/04/03 16:05:27;;;;;;;3.78;2.40;;;;;;;;;;6356080;22;19995;-78
2023/04/03 16:07:54;;;;;;;3.35;2.55;;;;;;;;;;6327561;22;20051;-76
2023/04/03 16:10:21;;;;;;;4.78;2.55;;;;;;;;;;6329864;22;20062;-77
2023/04/03 16:12:47;;;;;;;3.67;2.20;;;;;;;;;;6357247;22;19987;-79
2023/04/03 16:15:13;;;;;;;3.85;2.70;;;;;;;;;;6357140;22;19995;-76
2023/04/03 16:17:43;;;;;;;4.03;2.45;;;;;;;;;;6327714;22;20018;-79
2023/04/03 16:20:10;;;;;;;2.75;2.30;;;;;;;;;;6355727;22;20033;-83
2023/04/03 16:22:36;;;;;;;5.43;2.70;;;;;;;;;;6352845;22;20074;-81
2023/04/03 16:25:02;;;;;;;5.40;2.03;;;;;;;;;;6354133;22;20032;-77
2023/04/03 16:27:30;;;;;;;7.95;3.40;;;;;;;;;;6324491;22;20087;-81
2023/04/03 16:29:57;;;;;;;65.97;42.17;;;;;;;;;;6323505;22;19987;-79
2023/04/03 16:32:24;;;;;;;5.32;3.97;;;;;;;;;;6300597;22;19987;-78
2023/04/03 16:34:50;;;;;;;6.45;3.15;;;;;;;;;;6328823;22;19995;-77
2023/04/03 16:37:16;;;;;;;3.70;2.80;;;;;;;;;;6322484;22;20038;-84
2023/04/03 16:39:43;;;;;;;5.25;2.85;;;;;;;;;;6325982;22;19988;-78
2023/04/03 16:42:09;;;;;;;4.93;3.38;;;;;;;;;;6354746;22;20037;-80
2023/04/03 16:44:36;;;;;;;3.35;2.53;;;;;;;;;;6326060;22;20023;-81
2023/04/03 16:47:02;;;;;;;5.60;2.90;;;;;;;;;;6327228;22;20007;-82
2023/04/03 16:49:32;;;;;;;5.90;2.70;;;;;;;;;;6356642;22;20007;-78
2023/04/03 16:51:58;;;;;;;4.45;2.83;;;;;;;;;;6323546;22;20082;-80
2023/04/03 16:54:25;;;;;;;5.65;3.40;;;;;;;;;;6328342;22;19991;-83
2023/04/03 16:56:51;;;;;;;5.28;3.38;;;;;;;;;;6355539;22;19998;-78
2023/04/03 16:59:17;;;;;;;6.93;3.05;;;;;;;;;;6328271;22;20013;-78
2023/04/03 17:01:43;;;;;;;5.43;3.20;;;;;;;;;;6354922;22;20015;-81
2023/04/03 17:04:09;;;;;;;5.05;3.45;;;;;;;;;;6328520;22;20078;-77
2023/04/03 17:09:12;;;;;;;3.80;3.00;;;;;;;;;;6341795;22;20030;-76
2023/04/03 17:11:38;;;;;;;5.70;3.50;;;;;;;;;;6352685;22;20014;-81
2023/04/03 17:14:05;;;;;;;5.20;2.92;;;;;;;;;;6329675;22;20050;-76
2023/04/03 17:16:33;;;;;;;5.75;2.60;;;;;;;;;;6353214;22;20015;-77
2023/04/03 17:19:00;;;;;;;12.48;4.65;;;;;;;;;;6325528;22;19994;-76
2023/04/03 17:21:26;;;;;;;5.75;3.63;;;;;;;;;;6325868;22;20019;-78
2023/04/03 17:23:57;;;;;;;7.68;4.38;;;;;;;;;;6354696;22;20038;-79
2023/04/03 17:26:23;;;;;;;7.45;3.95;;;;;;;;;;6326115;22;20046;-80
2023/04/03 17:28:49;;;;;;;7.35;4.38;;;;;;;;;;6352295;22;20009;-80
2023/04/03 17:31:15;;;;;;;6.10;4.70;;;;;;;;;;6352889;22;20015;-78
2023/04/03 17:33:42;;;;;;;4.50;3.15;;;;;;;;;;6327283;22;20138;-77
2023/04/03 17:36:08;;;;;;;7.57;4.38;;;;;;;;;;6297513;22;20014;-77
2023/04/03 17:38:34;;;;;;;7.00;3.58;;;;;;;;;;6298950;22;20018;-77
2023/04/03 17:41:01;;;;;;;9.10;4.35;;;;;;;;;;6256304;22;20138;-78
2023/04/03 17:43:28;;;;;;;7.65;4.07;;;;;;;;;;6264055;22;20019;-79
2023/04/03 17:48:54;;;;;;;40.08;30.75;;;;;;;;;;6267346;22;20031;-82
2023/04/03 17:51:24;;;;;;;6.25;4.75;;;;;;;;;;6306809;22;20046;-84
2023/04/03 17:54:00;;;;;;;7.45;4.55;;;;;;;;;;6308045;22;20022;-87
2023/04/03 17:56:27;;;;;;;5.30;3.53;;;;;;;;;;6308084;22;20000;-83
2023/04/03 17:58:59;;;;;;;13.00;4.35;;;;;;;;;;6308532;22;20000;-83
2023/04/03 18:04:04;;;;;;;8.48;4.15;;;;;;;;;;6263009;22;20078;-83
2023/04/03 18:06:32;;;;;;;8.10;3.65;;;;;;;;;;6232356;22;20024;-83
2023/04/03 18:09:07;;;;;;;5.65;3.95;;;;;;;;;;6329647;22;20006;-81
2023/04/03 18:11:34;;;;;;;8.20;4.28;;;;;;;;;;6359605;22;19994;-81
2023/04/03 18:14:05;;;;;;;10.82;4.45;;;;;;;;;;6334529;22;19991;-83
2023/04/03 18:16:36;;;;;;;9.13;3.97;;;;;;;;;;6363500;22;19983;-82
2023/04/03 18:19:06;;;;;;;8.43;3.78;;;;;;;;;;6334406;22;20001;-81
2023/04/03 18:21:41;;;;;;;6.80;4.38;;;;;;;;;;6331460;22;20018;-82
2023/04/03 18:24:11;;;;;;;7.80;3.42;;;;;;;;;;6357814;22;20003;-82
2023/04/03 18:26:48;;;;;;;5.90;3.70;;;;;;;;;;6361725;22;20003;-84
2023/04/03 18:29:15;;;;;;;8.05;4.15;;;;;;;;;;6331216;22;20026;-81
2023/04/03 18:31:43;;;;;;;8.95;4.25;;;;;;;;;;6355530;22;20082;-80
2023/04/03 18:34:18;;;;;;;7.05;4.20;;;;;;;;;;6354485;22;20010;-81
2023/04/03 18:36:46;;;;;;;5.63;3.30;;;;;;;;;;6336332;22;20002;-82
2023/04/03 18:39:18;;;;;;;5.68;4.03;;;;;;;;;;6333934;22;20026;-81
2023/04/03 18:42:03;;;;;;;6.80;4.35;;;;;;;;;;6335037;22;20014;-83
2023/04/03 18:44:39;;;;;;;8.88;3.78;;;;;;;;;;6362444;22;20053;-81
2023/04/03 18:47:15;;;;;;;10.20;4.78;;;;;;;;;;6333721;22;20018;-81
2023/04/03 18:49:42;;;;;;;8.20;3.90;;;;;;;;;;6334221;22;20029;-83
2023/04/03 18:52:09;;;;;;;8.60;4.00;;;;;;;;;;6357221;22;20009;-81
2023/04/03 18:54:38;;;;;;;9.13;4.57;;;;;;;;;;6354965;22;20066;-82
2023/04/03 18:57:04;;;;;;;9.77;5.05;;;;;;;;;;6361154;22;20006;-82
2023/04/03 18:59:31;;;;;;;10.18;4.35;;;;;;;;;;6362753;22;20391;-82
2023/04/03 19:02:00;;;;;;;5.95;4.45;;;;;;;;;;6333713;22;20003;-82
2023/04/03 19:04:34;;;;;;;10.23;5.28;;;;;;;;;;6357979;22;20018;-82
2023/04/03 19:07:05;;;;;;;11.57;5.30;;;;;;;;;;6325449;22;20011;-81
2023/04/03 19:09:40;;;;;;;10.05;5.13;;;;;;;;;;6352887;22;20003;-81
2023/04/03 19:12:07;;;;;;;7.63;4.60;;;;;;;;;;6330104;22;19986;-82
2023/04/03 19:14:38;;;;;;;7.95;4.10;;;;;;;;;;6360755;22;20003;-81
2023/04/03 19:17:06;;;;;;;8.55;4.07;;;;;;;;;;6358654;22;19998;-82
2023/04/03 19:19:32;;;;;;;9.57;4.00;;;;;;;;;;6356860;22;19987;-81
2023/04/03 19:22:09;;;;;;;6.22;3.80;;;;;;;;;;6324963;22;20524;-80
2023/04/03 19:24:36;;;;;;;10.73;4.47;;;;;;;;;;6325564;22;20018;-81
2023/04/03 19:27:05;;;;;;;9.25;4.53;;;;;;;;;;6351390;22;19998;-80
2023/04/03 19:29:37;;;;;;;8.38;4.68;;;;;;;;;;6324174;22;19999;-82
2023/04/03 19:32:10;;;;;;;7.82;4.40;;;;;;;;;;6352708;22;20006;-81
2023/04/03 19:34:39;;;;;;;13.88;6.20;;;;;;;;;;6327007;22;20003;-81
2023/04/03 19:37:13;;;;;;;12.20;5.10;;;;;;;;;;6327376;22;20044;-80
2023/04/03 19:39:42;;;;;;;8.82;5.05;;;;;;;;;;6356977;22;20078;-81
2023/04/03 19:42:18;;;;;;;7.88;4.55;;;;;;;;;;6352900;22;20173;-81
2023/04/03 19:44:45;;;;;;;6.65;4.45;;;;;;;;;;6352502;22;20398;-81
2023/04/03 19:47:21;;;;;;;11.15;5.10;;;;;;;;;;6353153;22;20029;-79
2023/04/03 19:49:48;;;;;;;10.75;4.72;;;;;;;;;;6352616;22;20018;-79
2023/04/03 19:52:21;;;;;;;13.73;5.35;;;;;;;;;;6355831;22;20002;-81
2023/04/03 19:55:08;;;;;;;11.75;4.50;;;;;;;;;;6358837;22;19998;-82
2023/04/03 19:57:39;;;;;;;10.38;5.22;;;;;;;;;;6358007;22;20010;-81
2023/04/03 20:00:09;;;;;;;7.80;4.53;;;;;;;;;;6332335;22;19995;-80
2023/04/03 20:02:44;;;;;;;9.10;4.20;;;;;;;;;;6332098;22;20003;-81
2023/04/03 20:05:13;;;;;;;8.23;4.43;;;;;;;;;;6359912;22;20046;-82
2023/04/03 20:07:48;;;;;;;7.90;4.28;;;;;;;;;;6358863;22;20019;-82
2023/04/03 20:10:18;;;;;;;9.45;4.05;;;;;;;;;;6331812;22;20005;-81
2023/04/03 20:12:49;;;;;;;12.02;4.07;;;;;;;;;;6357761;22;20521;-79
2023/04/03 20:15:21;;;;;;;9.23;4.85;;;;;;;;;;6330654;22;20062;-81
2023/04/03 20:17:49;;;;;;;8.23;5.03;;;;;;;;;;6359222;22;20009;-80
2023/04/03 20:20:19;;;;;;;12.90;5.15;;;;;;;;;;6357343;22;20007;-82
2023/04/03 20:22:52;;;;;;;10.20;5.63;;;;;;;;;;6331287;22;20022;-83
2023/04/03 20:25:28;;;;;;;10.70;6.30;;;;;;;;;;6359761;22;20031;-83
2023/04/03 20:27:54;;;;;;;;;;;;;;;;;;6330871;22;19987;-81
2023/04/03 20:30:27;;;;;;;;;;;;;;;;;;6328904;22;19910;-82
2023/04/03 20:32:57;;;;;;;12.05;6.35;;;;;;;;;;6327072;22;19909;-81
2023/04/03 20:35:31;;;;;;;12.25;5.80;;;;;;;;;;6327392;22;20114;-80
2023/04/03 20:38:00;;;;;;;11.40;5.95;;;;;;;;;;6329539;22;20003;-81
2023/04/03 20:40:34;;;;;;;18.30;8.02;;;;;;;;;;6333217;22;20028;-81
2023/04/03 20:43:09;;;;;;;11.05;7.07;;;;;;;;;;6362806;22;19975;-80
2023/04/03 20:45:35;;;;;;;16.88;7.78;;;;;;;;;;6326141;22;20007;-82
2023/04/03 20:48:04;;;;;;;16.42;8.88;;;;;;;;;;6354306;22;20010;-81
2023/04/03 20:50:42;;;;;;;16.25;8.00;;;;;;;;;;6355719;22;20074;-82
2023/04/03 20:53:08;;;;;;;10.35;6.78;;;;;;;;;;6325032;22;19999;-80
2023/04/03 20:55:53;;;;;;;12.73;6.90;;;;;;;;;;6353710;22;20003;-82
2023/04/03 20:58:29;;;;;;;14.17;6.67;;;;;;;;;;6354291;22;20006;-80
2023/04/03 21:01:02;;;;;;;8.25;5.63;;;;;;;;;;6358052;22;19999;-83
2023/04/03 21:03:29;;;;;;;9.70;5.40;;;;;;;;;;6359549;22;20024;-82
2023/04/03 21:06:02;;;;;;;10.13;6.00;;;;;;;;;;6329527;22;20003;-81
2023/04/03 21:08:48;;;;;;;13.07;5.80;;;;;;;;;;6359753;22;20019;-80
2023/04/03 21:11:33;;;;;;;11.98;7.18;;;;;;;;;;6329682;22;20333;-81
2023/04/03 21:14:18;;;;;;;10.83;5.57;;;;;;;;;;6326472;22;20003;-81
2023/04/03 21:16:50;;;;;;;12.80;5.35;;;;;;;;;;6354209;22;20002;-81
2023/04/03 21:19:21;;;;;;;12.48;6.65;;;;;;;;;;6328894;22;20058;-82
2023/04/03 21:22:09;;;;;;;14.85;5.78;;;;;;;;;;6329110;22;20085;-81
2023/04/03 21:24:43;;;;;;;15.27;6.45;;;;;;;;;;6328526;22;20025;-82
2023/04/03 21:27:10;;;;;;;7.60;5.15;;;;;;;;;;6357636;22;20010;-81
2023/04/03 21:29:43;;;;;;;11.13;5.28;;;;;;;;;;6331077;22;20003;-81
2023/04/03 21:32:17;;;;;;;13.73;6.00;;;;;;;;;;6328406;22;20009;-81
2023/04/03 21:34:46;;;;;;;9.73;5.90;;;;;;;;;;6325957;22;20013;-80
2023/04/03 21:37:21;;;;;;;9.27;5.35;;;;;;;;;;6350914;22;20017;-80
2023/04/03 21:39:47;;;;;;;;;;;;;;;;;;6356652;22;20302;-80
2023/04/03 21:42:22;;;;;;;;;;;;;;;;;;6355837;22;19950;-81
2023/04/03 21:44:50;;;;;;;11.98;5.82;;;;;;;;;;6328241;22;19905;-80
2023/04/03 21:47:25;;;;;;;15.65;6.63;;;;;;;;;;6328693;22;20022;-81
2023/04/03 21:49:52;;;;;;;12.70;6.38;;;;;;;;;;6354782;22;20006;-78
2023/04/03 21:52:18;;;;;;;9.38;5.03;;;;;;;;;;6351203;22;20022;-81
2023/04/03 21:54:44;;;;;;;9.07;4.88;;;;;;;;;;6355604;22;20044;-80
2023/04/03 21:57:13;;;;;;;9.27;5.20;;;;;;;;;;6354956;22;20508;-81
2023/04/03 21:59:41;;;;;;;9.00;5.78;;;;;;;;;;6352839;22;20040;-80
2023/04/03 22:02:07;;;;;;;8.13;4.75;;;;;;;;;;6330397;22;20006;-80
2023/04/03 22:04:34;;;;;;;10.52;4.97;;;;;;;;;;6326192;22;20009;-80
2023/04/03 22:07:02;;;;;;;9.15;5.18;;;;;;;;;;6353238;22;20085;-80
2023/04/03 22:09:28;;;;;;;10.70;5.32;;;;;;;;;;6353468;22;20044;-80
2023/04/03 22:11:55;;;;;;;14.32;6.18;;;;;;;;;;6353379;22;20364;-79
2023/04/03 22:14:22;;;;;;;7.57;4.63;;;;;;;;;;6351737;22;20020;-79
2023/04/03 22:16:53;;;;;;;8.88;5.15;;;;;;;;;;6327362;22;20003;-80
2023/04/03 22:19:28;;;;;;;6.95;4.85;;;;;;;;;;6353996;22;19999;-80
2023/04/03 22:21:56;;;;;;;14.75;5.47;;;;;;;;;;6352325;22;19998;-79
2023/04/03 22:24:30;;;;;;;10.77;6.00;;;;;;;;;;6354495;22;19995;-80
2023/04/03 22:26:58;;;;;;;11.27;5.72;;;;;;;;;;6326673;22;20148;-82
2023/04/03 22:29:30;;;;;;;10.95;6.45;;;;;;;;;;6329137;22;20019;-81
2023/04/03 22:31:56;;;;;;;13.20;6.43;;;;;;;;;;6329055;22;20002;-79
2023/04/03 22:34:23;;;;;;;8.27;5.20;;;;;;;;;;6332309;22;20030;-81
2023/04/03 22:36:49;;;;;;;12.32;4.88;;;;;;;;;;6359183;22;20336;-81
2023/04/03 22:39:15;;;;;;;8.10;4.25;;;;;;;;;;6359090;22;20018;-82
2023/04/03 22:41:43;;;;;;;11.38;5.43;;;;;;;;;;6329207;22;20002;-81
2023/04/03 22:44:10;;;;;;;21.88;6.07;;;;;;;;;;6358845;22;20058;-81
2023/04/03 22:46:36;;;;;;;9.90;4.95;;;;;;;;;;6358988;22;20002;-82
2023/04/03 22:49:03;;;;;;;9.88;4.80;;;;;;;;;;6359493;22;19995;-81
2023/04/03 22:51:29;;;;;;;14.50;5.28;;;;;;;;;;6331198;22;20007;-80
2023/04/03 22:53:58;;;;;;;7.07;5.25;;;;;;;;;;6326875;22;20062;-81
2023/04/03 22:56:29;;;;;;;7.60;4.68;;;;;;;;;;6327890;22;19999;-79
2023/04/03 22:58:58;;;;;;;22.65;4.70;;;;;;;;;;6356614;22;19995;-81
2023/04/03 23:01:24;;;;;;;13.68;4.90;;;;;;;;;;6330387;22;20011;-81
2023/04/03 23:03:50;;;;;;;9.45;5.10;;;;;;;;;;6357066;22;20001;-81
2023/04/03 23:06:16;;;;;;;8.82;4.35;;;;;;;;;;6331104;22;20497;-81
2023/04/03 23:08:43;;;;;;;6.88;4.90;;;;;;;;;;6327597;22;20023;-80
2023/04/03 23:11:09;;;;;;;10.35;4.57;;;;;;;;;;6353785;22;20024;-80
2023/04/03 23:13:43;;;;;;;9.52;4.32;;;;;;;;;;6352107;22;20010;-79